sensor_id;sensor_type;location;lat;lon;timestamp;pressure;altitude;pressure_sealevel;temperature;humidity
20023;BME280;10172;42.054;24.546;2024-03-22T00:01:10;98427.41;;;6.00;64.05
20023;BME280;10172;42.054;24.546;2024-03-22T00:03:36;98430.00;;;5.95;63.89
20023;BME280;10172;42.054;24.546;2024-03-22T00:06:01;98429.22;;;5.95;62.76
20023;BME280;10172;42.054;24.546;2024-03-22T00:08:27;98437.66;;;5.97;63.74
20023;BME280;10172;42.054;24.546;2024-03-22T00:10:52;98438.41;;;5.51;64.09
20023;BME280;10172;42.054;24.546;2024-03-22T00:13:18;98430.69;;;5.81;66.99
20023;BME280;10172;42.054;24.546;2024-03-22T00:15:43;98427.91;;;5.56;68.61
20023;BME280;10172;42.054;24.546;2024-03-22T00:18:09;98425.00;;;5.15;69.93
20023;BME280;10172;42.054;24.546;2024-03-22T00:20:35;98424.94;;;5.10;67.28
20023;BME280;10172;42.054;24.546;2024-03-22T00:23:00;98422.59;;;5.51;66.22
20023;BME280;10172;42.054;24.546;2024-03-22T00:25:26;98424.84;;;6.16;64.51
20023;BME280;10172;42.054;24.546;2024-03-22T00:27:51;98429.75;;;5.55;67.20
20023;BME280;10172;42.054;24.546;2024-03-22T00:30:16;98421.59;;;5.20;66.65
20023;BME280;10172;42.054;24.546;2024-03-22T00:32:42;98416.41;;;5.35;64.55
20023;BME280;10172;42.054;24.546;2024-03-22T00:35:09;98416.22;;;5.83;63.04
20023;BME280;10172;42.054;24.546;2024-03-22T00:37:35;98422.41;;;5.25;65.89
20023;BME280;10172;42.054;24.546;2024-03-22T00:40:00;98435.34;;;4.68;67.07
20023;BME280;10172;42.054;24.546;2024-03-22T00:42:25;98428.41;;;4.36;68.90
20023;BME280;10172;42.054;24.546;2024-03-22T00:44:51;98422.84;;;4.54;68.12
20023;BME280;10172;42.054;24.546;2024-03-22T00:47:16;98418.69;;;5.21;65.62
20023;BME280;10172;42.054;24.546;2024-03-22T00:49:42;98420.53;;;4.62;66.56
20023;BME280;10172;42.054;24.546;2024-03-22T00:52:07;98425.59;;;4.69;66.45
20023;BME280;10172;42.054;24.546;2024-03-22T00:54:33;98422.25;;;5.42;64.95
20023;BME280;10172;42.054;24.546;2024-03-22T00:56:58;98413.44;;;4.63;67.82
20023;BME280;10172;42.054;24.546;2024-03-22T00:59:23;98417.34;;;3.90;70.37
20023;BME280;10172;42.054;24.546;2024-03-22T01:01:49;98417.66;;;4.37;69.11
20023;BME280;10172;42.054;24.546;2024-03-22T01:04:14;98412.56;;;4.31;69.56
20023;BME280;10172;42.054;24.546;2024-03-22T01:06:40;98422.63;;;4.60;67.79
20023;BME280;10172;42.054;24.546;2024-03-22T01:09:06;98419.97;;;4.82;67.23
20023;BME280;10172;42.054;24.546;2024-03-22T01:11:31;98424.13;;;4.51;67.59
20023;BME280;10172;42.054;24.546;2024-03-22T01:13:56;98422.09;;;4.58;68.42
20023;BME280;10172;42.054;24.546;2024-03-22T01:16:22;98416.09;;;3.76;70.52
20023;BME280;10172;42.054;24.546;2024-03-22T01:18:47;98426.00;;;3.69;71.18
20023;BME280;10172;42.054;24.546;2024-03-22T01:21:13;98415.94;;;4.26;70.76
20023;BME280;10172;42.054;24.546;2024-03-22T01:23:39;98416.28;;;3.70;72.24
20023;BME280;10172;42.054;24.546;2024-03-22T01:26:04;98419.56;;;3.98;71.31
20023;BME280;10172;42.054;24.546;2024-03-22T01:28:29;98412.41;;;3.94;70.54
20023;BME280;10172;42.054;24.546;2024-03-22T01:30:55;98419.28;;;4.43;68.65
20023;BME280;10172;42.054;24.546;2024-03-22T01:33:20;98409.88;;;4.26;68.74
20023;BME280;10172;42.054;24.546;2024-03-22T01:35:45;98408.44;;;4.35;68.19
20023;BME280;10172;42.054;24.546;2024-03-22T01:38:11;98416.25;;;4.30;69.15
20023;BME280;10172;42.054;24.546;2024-03-22T01:40:36;98404.91;;;4.51;67.91
20023;BME280;10172;42.054;24.546;2024-03-22T01:43:02;98409.66;;;4.80;66.84
20023;BME280;10172;42.054;24.546;2024-03-22T01:45:31;98420.66;;;4.72;66.31
20023;BME280;10172;42.054;24.546;2024-03-22T01:47:57;98419.44;;;4.32;69.98
20023;BME280;10172;42.054;24.546;2024-03-22T01:50:23;98431.25;;;3.69;70.97
20023;BME280;10172;42.054;24.546;2024-03-22T01:52:48;98421.69;;;3.80;70.75
20023;BME280;10172;42.054;24.546;2024-03-22T01:55:14;98428.28;;;3.82;70.20
20023;BME280;10172;42.054;24.546;2024-03-22T01:57:40;98417.63;;;3.72;70.58
20023;BME280;10172;42.054;24.546;2024-03-22T02:00:06;98425.97;;;4.29;68.52
20023;BME280;10172;42.054;24.546;2024-03-22T02:02:35;98423.66;;;3.89;69.20
20023;BME280;10172;42.054;24.546;2024-03-22T02:05:12;98415.47;;;4.07;69.35
20023;BME280;10172;42.054;24.546;2024-03-22T02:07:38;98424.69;;;3.88;70.07
20023;BME280;10172;42.054;24.546;2024-03-22T02:10:03;98424.75;;;3.93;69.80
20023;BME280;10172;42.054;24.546;2024-03-22T02:12:29;98419.69;;;4.30;68.65
20023;BME280;10172;42.054;24.546;2024-03-22T02:14:57;98420.03;;;3.95;70.05
20023;BME280;10172;42.054;24.546;2024-03-22T02:17:23;98420.66;;;4.24;68.84
20023;BME280;10172;42.054;24.546;2024-03-22T02:19:48;98412.38;;;4.64;67.12
20023;BME280;10172;42.054;24.546;2024-03-22T02:22:13;98418.25;;;4.71;66.85
20023;BME280;10172;42.054;24.546;2024-03-22T02:24:39;98412.34;;;4.59;66.93
20023;BME280;10172;42.054;24.546;2024-03-22T02:27:04;98421.19;;;4.26;68.36
20023;BME280;10172;42.054;24.546;2024-03-22T02:29:29;98418.47;;;4.64;67.06
20023;BME280;10172;42.054;24.546;2024-03-22T02:31:55;98419.50;;;4.37;67.61
20023;BME280;10172;42.054;24.546;2024-03-22T02:34:20;98431.53;;;3.89;70.02
20023;BME280;10172;42.054;24.546;2024-03-22T02:36:45;98428.19;;;3.94;69.55
20023;BME280;10172;42.054;24.546;2024-03-22T02:39:11;98419.63;;;4.03;70.01
20023;BME280;10172;42.054;24.546;2024-03-22T02:41:36;98416.88;;;4.37;67.92
20023;BME280;10172;42.054;24.546;2024-03-22T02:44:01;98414.31;;;4.20;68.42
20023;BME280;10172;42.054;24.546;2024-03-22T02:46:27;98414.72;;;4.12;68.24
20023;BME280;10172;42.054;24.546;2024-03-22T02:48:53;98421.34;;;4.63;66.99
20023;BME280;10172;42.054;24.546;2024-03-22T02:51:18;98418.56;;;4.26;68.36
20023;BME280;10172;42.054;24.546;2024-03-22T02:53:44;98424.38;;;4.06;69.08
20023;BME280;10172;42.054;24.546;2024-03-22T02:56:09;98425.44;;;3.67;70.76
20023;BME280;10172;42.054;24.546;2024-03-22T02:58:34;98423.28;;;3.64;71.42
20023;BME280;10172;42.054;24.546;2024-03-22T03:01:01;98431.38;;;3.41;71.94
20023;BME280;10172;42.054;24.546;2024-03-22T03:03:28;98430.00;;;3.93;69.84
20023;BME280;10172;42.054;24.546;2024-03-22T03:05:54;98427.69;;;4.19;68.07
20023;BME280;10172;42.054;24.546;2024-03-22T03:08:19;98423.97;;;4.63;67.22
20023;BME280;10172;42.054;24.546;2024-03-22T03:10:44;98436.56;;;4.34;67.90
20023;BME280;10172;42.054;24.546;2024-03-22T03:13:10;98436.13;;;3.99;69.52
20023;BME280;10172;42.054;24.546;2024-03-22T03:15:36;98415.59;;;4.18;69.50
20023;BME280;10172;42.054;24.546;2024-03-22T03:18:01;98430.44;;;4.07;68.95
20023;BME280;10172;42.054;24.546;2024-03-22T03:20:27;98432.56;;;3.50;72.21
20023;BME280;10172;42.054;24.546;2024-03-22T03:22:52;98424.22;;;4.35;68.59
20023;BME280;10172;42.054;24.546;2024-03-22T03:25:17;98438.72;;;4.37;68.20
20023;BME280;10172;42.054;24.546;2024-03-22T03:27:43;98447.22;;;4.23;68.73
20023;BME280;10172;42.054;24.546;2024-03-22T03:30:08;98448.84;;;4.29;67.69
20023;BME280;10172;42.054;24.546;2024-03-22T03:32:34;98445.44;;;3.68;69.50
20023;BME280;10172;42.054;24.546;2024-03-22T03:34:59;98451.66;;;3.46;70.91
20023;BME280;10172;42.054;24.546;2024-03-22T03:37:25;98441.25;;;3.89;69.26
20023;BME280;10172;42.054;24.546;2024-03-22T03:39:50;98446.75;;;4.09;68.55
20023;BME280;10172;42.054;24.546;2024-03-22T03:42:15;98450.13;;;4.04;68.73
20023;BME280;10172;42.054;24.546;2024-03-22T03:44:41;98450.81;;;3.78;68.81
20023;BME280;10172;42.054;24.546;2024-03-22T03:47:07;98457.97;;;4.21;68.03
20023;BME280;10172;42.054;24.546;2024-03-22T03:49:32;98457.19;;;4.21;66.92
20023;BME280;10172;42.054;24.546;2024-03-22T03:51:57;98451.59;;;4.39;65.98
20023;BME280;10172;42.054;24.546;2024-03-22T03:54:23;98453.63;;;4.10;67.26
20023;BME280;10172;42.054;24.546;2024-03-22T03:56:48;98456.59;;;4.19;66.36
20023;BME280;10172;42.054;24.546;2024-03-22T03:59:14;98451.41;;;4.02;68.11
20023;BME280;10172;42.054;24.546;2024-03-22T04:01:39;98455.22;;;4.11;67.24
20023;BME280;10172;42.054;24.546;2024-03-22T04:04:04;98460.25;;;3.41;69.53
20023;BME280;10172;42.054;24.546;2024-03-22T04:06:30;98457.34;;;3.54;69.54
20023;BME280;10172;42.054;24.546;2024-03-22T04:08:55;98456.69;;;3.85;67.99
20023;BME280;10172;42.054;24.546;2024-03-22T04:11:21;98462.53;;;4.09;67.15
20023;BME280;10172;42.054;24.546;2024-03-22T04:13:46;98473.44;;;4.18;66.60
20023;BME280;10172;42.054;24.546;2024-03-22T04:16:12;98477.97;;;4.44;65.44
20023;BME280;10172;42.054;24.546;2024-03-22T04:18:38;98478.66;;;4.34;66.56
20023;BME280;10172;42.054;24.546;2024-03-22T04:21:04;98484.25;;;4.21;65.73
20023;BME280;10172;42.054;24.546;2024-03-22T04:23:29;98493.84;;;3.89;67.65
20023;BME280;10172;42.054;24.546;2024-03-22T04:25:56;98484.59;;;4.25;66.17
20023;BME280;10172;42.054;24.546;2024-03-22T04:28:22;98491.19;;;3.89;68.06
20023;BME280;10172;42.054;24.546;2024-03-22T04:31:00;98499.38;;;3.54;69.12
20023;BME280;10172;42.054;24.546;2024-03-22T04:33:26;98509.88;;;3.09;70.64
20023;BME280;10172;42.054;24.546;2024-03-22T04:35:53;98510.19;;;3.41;70.26
20023;BME280;10172;42.054;24.546;2024-03-22T04:38:18;98505.34;;;3.05;71.27
20023;BME280;10172;42.054;24.546;2024-03-22T04:40:44;98502.75;;;3.21;70.42
20023;BME280;10172;42.054;24.546;2024-03-22T04:43:09;98503.81;;;3.54;69.67
20023;BME280;10172;42.054;24.546;2024-03-22T04:45:35;98508.66;;;3.45;69.86
20023;BME280;10172;42.054;24.546;2024-03-22T04:48:04;98509.44;;;3.79;68.70
20023;BME280;10172;42.054;24.546;2024-03-22T04:50:30;98508.44;;;3.80;67.92
20023;BME280;10172;42.054;24.546;2024-03-22T04:52:55;98502.22;;;4.07;67.07
20023;BME280;10172;42.054;24.546;2024-03-22T04:55:21;98501.72;;;3.89;67.72
20023;BME280;10172;42.054;24.546;2024-03-22T04:57:46;98503.97;;;4.40;65.83
20023;BME280;10172;42.054;24.546;2024-03-22T05:00:12;98495.16;;;4.08;66.80
20023;BME280;10172;42.054;24.546;2024-03-22T05:02:38;98494.94;;;3.93;66.95
20023;BME280;10172;42.054;24.546;2024-03-22T05:05:03;98497.91;;;4.18;66.07
20023;BME280;10172;42.054;24.546;2024-03-22T05:07:29;98505.47;;;4.15;66.82
20023;BME280;10172;42.054;24.546;2024-03-22T05:09:54;98504.44;;;4.80;64.88
20023;BME280;10172;42.054;24.546;2024-03-22T05:12:19;98505.56;;;4.63;64.84
20023;BME280;10172;42.054;24.546;2024-03-22T05:14:44;98505.53;;;5.11;63.44
20023;BME280;10172;42.054;24.546;2024-03-22T05:17:10;98507.22;;;4.47;65.76
20023;BME280;10172;42.054;24.546;2024-03-22T05:19:35;98509.34;;;4.72;65.31
20023;BME280;10172;42.054;24.546;2024-03-22T05:22:00;98508.00;;;4.48;64.64
20023;BME280;10172;42.054;24.546;2024-03-22T05:24:26;98517.66;;;4.86;64.62
20023;BME280;10172;42.054;24.546;2024-03-22T05:26:52;98516.75;;;5.28;62.99
20023;BME280;10172;42.054;24.546;2024-03-22T05:29:18;98522.72;;;5.45;62.30
20023;BME280;10172;42.054;24.546;2024-03-22T05:31:48;98525.56;;;4.64;65.43
20023;BME280;10172;42.054;24.546;2024-03-22T05:34:14;98521.00;;;5.29;62.70
20023;BME280;10172;42.054;24.546;2024-03-22T05:36:40;98515.94;;;5.55;61.29
20023;BME280;10172;42.054;24.546;2024-03-22T05:39:06;98528.09;;;5.02;63.02
20023;BME280;10172;42.054;24.546;2024-03-22T05:41:31;98534.50;;;4.63;65.61
20023;BME280;10172;42.054;24.546;2024-03-22T05:43:56;98530.28;;;5.10;64.55
20023;BME280;10172;42.054;24.546;2024-03-22T05:46:22;98532.19;;;5.41;62.81
20023;BME280;10172;42.054;24.546;2024-03-22T05:48:47;98539.53;;;6.03;60.66
20023;BME280;10172;42.054;24.546;2024-03-22T05:51:14;98541.47;;;6.18;60.32
20023;BME280;10172;42.054;24.546;2024-03-22T05:53:39;98546.03;;;6.32;60.33
20023;BME280;10172;42.054;24.546;2024-03-22T05:56:05;98543.81;;;6.71;59.13
20023;BME280;10172;42.054;24.546;2024-03-22T05:58:30;98555.56;;;7.00;57.87
20023;BME280;10172;42.054;24.546;2024-03-22T06:00:56;98559.28;;;7.09;57.14
20023;BME280;10172;42.054;24.546;2024-03-22T06:03:21;98550.53;;;6.99;58.33
20023;BME280;10172;42.054;24.546;2024-03-22T06:05:47;98554.59;;;7.62;56.60
20023;BME280;10172;42.054;24.546;2024-03-22T06:08:13;98562.28;;;7.78;56.18
20023;BME280;10172;42.054;24.546;2024-03-22T06:10:38;98564.13;;;7.58;57.47
20023;BME280;10172;42.054;24.546;2024-03-22T06:13:03;98566.53;;;7.79;58.12
20023;BME280;10172;42.054;24.546;2024-03-22T06:15:29;98558.25;;;8.21;56.73
20023;BME280;10172;42.054;24.546;2024-03-22T06:17:54;98556.38;;;8.52;56.30
20023;BME280;10172;42.054;24.546;2024-03-22T06:20:19;98556.03;;;8.73;55.86
20023;BME280;10172;42.054;24.546;2024-03-22T06:22:45;98559.31;;;9.09;54.61
20023;BME280;10172;42.054;24.546;2024-03-22T06:25:10;98557.06;;;9.31;54.04
20023;BME280;10172;42.054;24.546;2024-03-22T06:27:35;98562.91;;;9.28;55.14
20023;BME280;10172;42.054;24.546;2024-03-22T06:30:01;98556.91;;;9.51;54.47
20023;BME280;10172;42.054;24.546;2024-03-22T06:32:26;98557.34;;;9.69;54.57
20023;BME280;10172;42.054;24.546;2024-03-22T06:34:52;98563.50;;;10.27;53.02
20023;BME280;10172;42.054;24.546;2024-03-22T06:37:17;98568.31;;;9.91;53.85
20023;BME280;10172;42.054;24.546;2024-03-22T06:39:42;98565.38;;;11.16;52.65
20023;BME280;10172;42.054;24.546;2024-03-22T06:42:08;98564.66;;;11.29;50.72
20023;BME280;10172;42.054;24.546;2024-03-22T06:44:33;98570.13;;;11.75;48.96
20023;BME280;10172;42.054;24.546;2024-03-22T06:46:58;98567.81;;;12.19;48.81
20023;BME280;10172;42.054;24.546;2024-03-22T06:49:24;98564.34;;;11.86;47.98
20023;BME280;10172;42.054;24.546;2024-03-22T06:51:50;98562.81;;;12.31;46.76
20023;BME280;10172;42.054;24.546;2024-03-22T06:54:15;98558.38;;;12.40;45.76
20023;BME280;10172;42.054;24.546;2024-03-22T06:56:41;98576.84;;;12.04;47.86
20023;BME280;10172;42.054;24.546;2024-03-22T06:59:06;98562.81;;;12.58;45.93
20023;BME280;10172;42.054;24.546;2024-03-22T07:01:32;98559.50;;;12.20;46.41
20023;BME280;10172;42.054;24.546;2024-03-22T07:03:57;98563.28;;;11.87;46.89
20023;BME280;10172;42.054;24.546;2024-03-22T07:06:22;98566.56;;;11.98;47.38
20023;BME280;10172;42.054;24.546;2024-03-22T07:08:48;98561.13;;;12.35;46.73
20023;BME280;10172;42.054;24.546;2024-03-22T07:11:13;98566.34;;;11.94;46.35
20023;BME280;10172;42.054;24.546;2024-03-22T07:13:38;98572.44;;;11.81;46.84
20023;BME280;10172;42.054;24.546;2024-03-22T07:16:04;98564.69;;;12.85;44.32
20023;BME280;10172;42.054;24.546;2024-03-22T07:18:30;98564.66;;;12.44;44.86
20023;BME280;10172;42.054;24.546;2024-03-22T07:20:55;98568.53;;;11.92;46.23
20023;BME280;10172;42.054;24.546;2024-03-22T07:23:20;98573.28;;;11.58;48.05
20023;BME280;10172;42.054;24.546;2024-03-22T07:25:49;98569.34;;;12.06;46.44
20023;BME280;10172;42.054;24.546;2024-03-22T07:28:14;98572.28;;;11.54;47.86
20023;BME280;10172;42.054;24.546;2024-03-22T07:30:41;98569.00;;;11.94;46.69
20023;BME280;10172;42.054;24.546;2024-03-22T07:33:07;98562.88;;;12.26;46.30
20023;BME280;10172;42.054;24.546;2024-03-22T07:35:34;98570.22;;;12.48;47.02
20023;BME280;10172;42.054;24.546;2024-03-22T07:37:59;98569.50;;;12.69;45.66
20023;BME280;10172;42.054;24.546;2024-03-22T07:40:25;98571.59;;;13.00;44.91
20023;BME280;10172;42.054;24.546;2024-03-22T07:42:50;98556.38;;;13.00;43.90
20023;BME280;10172;42.054;24.546;2024-03-22T07:45:16;98567.66;;;12.43;46.46
20023;BME280;10172;42.054;24.546;2024-03-22T07:47:41;98582.56;;;11.79;46.14
20023;BME280;10172;42.054;24.546;2024-03-22T07:50:09;98575.31;;;12.17;45.86
20023;BME280;10172;42.054;24.546;2024-03-22T07:52:34;98572.56;;;12.36;45.50
20023;BME280;10172;42.054;24.546;2024-03-22T07:54:59;98575.34;;;12.44;46.50
20023;BME280;10172;42.054;24.546;2024-03-22T07:57:27;98575.75;;;12.78;44.74
20023;BME280;10172;42.054;24.546;2024-03-22T07:59:53;98572.56;;;13.04;45.04
20023;BME280;10172;42.054;24.546;2024-03-22T08:02:18;98568.72;;;13.23;41.47
20023;BME280;10172;42.054;24.546;2024-03-22T08:04:43;98576.22;;;12.40;43.28
20023;BME280;10172;42.054;24.546;2024-03-22T08:07:09;98565.25;;;12.28;43.72
20023;BME280;10172;42.054;24.546;2024-03-22T08:09:34;98574.34;;;13.22;42.44
20023;BME280;10172;42.054;24.546;2024-03-22T08:11:59;98567.25;;;13.75;41.22
20023;BME280;10172;42.054;24.546;2024-03-22T08:14:25;98574.53;;;13.25;42.12
20023;BME280;10172;42.054;24.546;2024-03-22T08:16:50;98568.88;;;13.27;42.54
20023;BME280;10172;42.054;24.546;2024-03-22T08:19:15;98574.84;;;12.97;43.33
20023;BME280;10172;42.054;24.546;2024-03-22T08:21:41;98580.75;;;11.56;45.54
20023;BME280;10172;42.054;24.546;2024-03-22T08:24:06;98574.09;;;12.09;46.80
20023;BME280;10172;42.054;24.546;2024-03-22T08:26:31;98562.28;;;13.24;43.17
20023;BME280;10172;42.054;24.546;2024-03-22T08:28:57;98577.00;;;11.94;43.37
20023;BME280;10172;42.054;24.546;2024-03-22T08:31:22;98560.16;;;12.12;43.55
20023;BME280;10172;42.054;24.546;2024-03-22T08:33:51;98568.50;;;13.20;41.94
20023;BME280;10172;42.054;24.546;2024-03-22T08:36:16;98564.94;;;13.60;40.82
20023;BME280;10172;42.054;24.546;2024-03-22T08:38:42;98564.19;;;13.24;41.46
20023;BME280;10172;42.054;24.546;2024-03-22T08:41:07;98564.91;;;13.74;39.95
20023;BME280;10172;42.054;24.546;2024-03-22T08:43:32;98557.59;;;14.32;37.95
20023;BME280;10172;42.054;24.546;2024-03-22T08:45:58;98563.00;;;13.96;36.12
20023;BME280;10172;42.054;24.546;2024-03-22T08:48:23;98559.97;;;13.67;36.49
20023;BME280;10172;42.054;24.546;2024-03-22T08:50:48;98562.81;;;14.37;33.04
20023;BME280;10172;42.054;24.546;2024-03-22T08:53:14;98567.13;;;15.03;31.44
20023;BME280;10172;42.054;24.546;2024-03-22T08:55:45;98569.97;;;15.07;31.97
20023;BME280;10172;42.054;24.546;2024-03-22T08:58:11;98568.41;;;13.83;33.29
20023;BME280;10172;42.054;24.546;2024-03-22T09:00:37;98567.72;;;14.83;33.00
20023;BME280;10172;42.054;24.546;2024-03-22T09:03:03;98566.38;;;15.28;32.23
20023;BME280;10172;42.054;24.546;2024-03-22T09:05:28;98564.41;;;14.47;33.01
20023;BME280;10172;42.054;24.546;2024-03-22T09:07:54;98561.00;;;14.02;36.13
20023;BME280;10172;42.054;24.546;2024-03-22T09:10:20;98558.34;;;15.28;33.34
20023;BME280;10172;42.054;24.546;2024-03-22T09:12:46;98559.72;;;16.20;32.69
20023;BME280;10172;42.054;24.546;2024-03-22T09:15:11;98552.25;;;16.51;31.87
20023;BME280;10172;42.054;24.546;2024-03-22T09:17:37;98553.63;;;16.49;31.83
20023;BME280;10172;42.054;24.546;2024-03-22T09:20:02;98550.63;;;16.50;32.16
20023;BME280;10172;42.054;24.546;2024-03-22T09:22:29;98544.47;;;16.50;31.49
20023;BME280;10172;42.054;24.546;2024-03-22T09:24:54;98543.69;;;17.16;30.94
20023;BME280;10172;42.054;24.546;2024-03-22T09:27:20;98550.69;;;17.50;30.33
20023;BME280;10172;42.054;24.546;2024-03-22T09:29:45;98541.03;;;16.49;30.40
20023;BME280;10172;42.054;24.546;2024-03-22T09:32:10;98549.84;;;15.35;32.76
20023;BME280;10172;42.054;24.546;2024-03-22T09:34:36;98553.03;;;15.71;31.21
20023;BME280;10172;42.054;24.546;2024-03-22T09:37:01;98552.88;;;15.50;30.66
20023;BME280;10172;42.054;24.546;2024-03-22T09:39:27;98545.75;;;15.97;30.50
20023;BME280;10172;42.054;24.546;2024-03-22T09:41:56;98546.09;;;16.34;26.91
20023;BME280;10172;42.054;24.546;2024-03-22T09:44:23;98543.66;;;16.96;28.32
20023;BME280;10172;42.054;24.546;2024-03-22T09:46:50;98540.22;;;17.36;27.24
20023;BME280;10172;42.054;24.546;2024-03-22T09:49:16;98536.09;;;17.18;27.25
20023;BME280;10172;42.054;24.546;2024-03-22T09:51:43;98533.47;;;17.51;25.99
20023;BME280;10172;42.054;24.546;2024-03-22T09:54:09;98539.88;;;16.97;27.34
20023;BME280;10172;42.054;24.546;2024-03-22T09:56:39;98533.56;;;17.96;26.94
20023;BME280;10172;42.054;24.546;2024-03-22T09:59:05;98528.00;;;18.13;25.20
20023;BME280;10172;42.054;24.546;2024-03-22T10:01:33;98543.00;;;16.99;26.29
20023;BME280;10172;42.054;24.546;2024-03-22T10:03:59;98547.59;;;15.03;29.75
20023;BME280;10172;42.054;24.546;2024-03-22T10:06:25;98533.91;;;15.13;29.57
20023;BME280;10172;42.054;24.546;2024-03-22T10:08:50;98524.34;;;16.35;30.40
20023;BME280;10172;42.054;24.546;2024-03-22T10:11:16;98525.94;;;17.44;27.68
20023;BME280;10172;42.054;24.546;2024-03-22T10:13:41;98518.00;;;17.27;27.35
20023;BME280;10172;42.054;24.546;2024-03-22T10:16:06;98518.03;;;17.81;25.60
20023;BME280;10172;42.054;24.546;2024-03-22T10:18:33;98526.19;;;17.10;26.35
20023;BME280;10172;42.054;24.546;2024-03-22T10:21:03;98518.53;;;17.41;26.19
20023;BME280;10172;42.054;24.546;2024-03-22T10:23:30;98524.19;;;17.28;25.59
20023;BME280;10172;42.054;24.546;2024-03-22T10:25:59;98530.00;;;16.80;27.23
20023;BME280;10172;42.054;24.546;2024-03-22T10:28:25;98513.81;;;17.38;26.66
20023;BME280;10172;42.054;24.546;2024-03-22T10:30:51;98525.25;;;16.56;26.54
20023;BME280;10172;42.054;24.546;2024-03-22T10:33:21;98527.63;;;15.09;27.10
20023;BME280;10172;42.054;24.546;2024-03-22T10:35:52;98515.34;;;15.25;27.63
20023;BME280;10172;42.054;24.546;2024-03-22T10:38:19;98501.41;;;16.08;27.49
20023;BME280;10172;42.054;24.546;2024-03-22T10:40:44;98502.81;;;16.52;28.00
20023;BME280;10172;42.054;24.546;2024-03-22T10:43:14;98504.84;;;16.64;26.06
20023;BME280;10172;42.054;24.546;2024-03-22T10:45:40;98504.09;;;16.84;26.21
20023;BME280;10172;42.054;24.546;2024-03-22T10:48:09;98500.56;;;16.92;25.24
20023;BME280;10172;42.054;24.546;2024-03-22T10:50:34;98488.94;;;17.09;24.62
20023;BME280;10172;42.054;24.546;2024-03-22T10:53:04;98497.94;;;16.83;24.60
20023;BME280;10172;42.054;24.546;2024-03-22T10:55:37;98498.06;;;16.87;24.25
20023;BME280;10172;42.054;24.546;2024-03-22T10:58:04;98494.59;;;16.57;25.81
20023;BME280;10172;42.054;24.546;2024-03-22T11:00:34;98491.59;;;16.88;25.44
20023;BME280;10172;42.054;24.546;2024-03-22T11:03:04;98481.94;;;17.70;25.66
20023;BME280;10172;42.054;24.546;2024-03-22T11:05:30;98483.16;;;17.39;24.30
20023;BME280;10172;42.054;24.546;2024-03-22T11:08:05;98479.84;;;16.72;25.27
20023;BME280;10172;42.054;24.546;2024-03-22T11:10:33;98468.50;;;16.28;24.35
20023;BME280;10172;42.054;24.546;2024-03-22T11:13:06;98467.63;;;16.83;24.59
20023;BME280;10172;42.054;24.546;2024-03-22T11:15:33;98467.22;;;17.88;23.10
20023;BME280;10172;42.054;24.546;2024-03-22T11:17:59;98465.09;;;17.28;23.66
20023;BME280;10172;42.054;24.546;2024-03-22T11:20:25;98459.97;;;17.35;23.28
20023;BME280;10172;42.054;24.546;2024-03-22T11:22:53;98455.25;;;18.09;21.89
20023;BME280;10172;42.054;24.546;2024-03-22T11:25:19;98453.94;;;16.47;24.68
20023;BME280;10172;42.054;24.546;2024-03-22T11:27:48;98458.72;;;16.70;24.41
20023;BME280;10172;42.054;24.546;2024-03-22T11:30:15;98445.31;;;17.32;23.51
20023;BME280;10172;42.054;24.546;2024-03-22T11:32:40;98449.88;;;17.97;23.22
20023;BME280;10172;42.054;24.546;2024-03-22T11:35:13;98449.25;;;18.61;23.28
20023;BME280;10172;42.054;24.546;2024-03-22T11:37:39;98436.75;;;17.96;23.11
20023;BME280;10172;42.054;24.546;2024-03-22T11:40:06;98437.81;;;17.38;24.06
20023;BME280;10172;42.054;24.546;2024-03-22T11:42:33;98442.84;;;18.29;23.10
20023;BME280;10172;42.054;24.546;2024-03-22T11:44:59;98437.81;;;18.15;22.37
20023;BME280;10172;42.054;24.546;2024-03-22T11:47:25;98435.63;;;18.93;21.01
20023;BME280;10172;42.054;24.546;2024-03-22T11:49:50;98433.78;;;18.46;23.09
20023;BME280;10172;42.054;24.546;2024-03-22T11:52:16;98421.06;;;17.20;23.65
20023;BME280;10172;42.054;24.546;2024-03-22T11:54:41;98429.44;;;15.81;25.64
20023;BME280;10172;42.054;24.546;2024-03-22T11:57:08;98422.56;;;15.63;26.57
20023;BME280;10172;42.054;24.546;2024-03-22T11:59:34;98420.34;;;16.70;24.95
20023;BME280;10172;42.054;24.546;2024-03-22T12:01:59;98414.47;;;17.18;26.35
20023;BME280;10172;42.054;24.546;2024-03-22T12:04:25;98414.94;;;18.34;22.70
20023;BME280;10172;42.054;24.546;2024-03-22T12:06:51;98409.00;;;18.16;23.82
20023;BME280;10172;42.054;24.546;2024-03-22T12:09:18;98411.63;;;17.68;23.93
20023;BME280;10172;42.054;24.546;2024-03-22T12:11:43;98404.97;;;16.79;24.27
20023;BME280;10172;42.054;24.546;2024-03-22T12:14:08;98410.53;;;17.93;22.83
20023;BME280;10172;42.054;24.546;2024-03-22T12:16:34;98402.88;;;17.38;22.86
20023;BME280;10172;42.054;24.546;2024-03-22T12:18:59;98390.41;;;18.23;22.07
20023;BME280;10172;42.054;24.546;2024-03-22T12:21:25;98406.84;;;17.97;22.15
20023;BME280;10172;42.054;24.546;2024-03-22T12:23:50;98395.97;;;17.82;22.24
20023;BME280;10172;42.054;24.546;2024-03-22T12:26:15;98401.47;;;18.34;21.95
20023;BME280;10172;42.054;24.546;2024-03-22T12:28:41;98403.59;;;18.40;22.11
20023;BME280;10172;42.054;24.546;2024-03-22T12:31:08;98395.75;;;17.87;21.48
20023;BME280;10172;42.054;24.546;2024-03-22T12:33:33;98389.00;;;17.69;22.66
20023;BME280;10172;42.054;24.546;2024-03-22T12:35:59;98387.47;;;18.40;22.53
20023;BME280;10172;42.054;24.546;2024-03-22T12:38:25;98390.41;;;18.23;21.91
20023;BME280;10172;42.054;24.546;2024-03-22T12:40:50;98384.78;;;17.92;21.77
20023;BME280;10172;42.054;24.546;2024-03-22T12:43:15;98379.63;;;17.42;21.54
20023;BME280;10172;42.054;24.546;2024-03-22T12:45:42;98374.34;;;18.63;22.01
20023;BME280;10172;42.054;24.546;2024-03-22T12:48:07;98371.00;;;18.05;22.00